createdAt,value
2022-11-03T00:01:54.184Z,14.65
2022-11-03T00:04:24.603Z,13.55
2022-11-03T00:06:55.803Z,13.55
2022-11-03T00:09:24.549Z,13.65
2022-11-03T00:11:52.626Z,14.40
2022-11-03T00:14:20.686Z,14.35
2022-11-03T00:16:48.619Z,13.93
2022-11-03T00:19:17.640Z,13.63
2022-11-03T00:21:53.033Z,13.40
2022-11-03T00:24:21.458Z,13.88
2022-11-03T00:26:49.051Z,13.88
2022-11-03T00:29:16.665Z,14.07
2022-11-03T00:31:48.070Z,14.38
2022-11-03T00:34:15.372Z,14.13
2022-11-03T00:36:44.798Z,13.68
2022-11-03T00:39:13.422Z,14.18
2022-11-03T00:41:41.272Z,14.00
2022-11-03T00:44:14.365Z,14.05
2022-11-03T00:46:41.657Z,13.50
2022-11-03T00:49:11.405Z,14.18
2022-11-03T00:51:39.004Z,14.10
2022-11-03T00:54:09.087Z,14.75
2022-11-03T00:56:39.212Z,14.00
2022-11-03T00:59:10.648Z,14.27
2022-11-03T01:01:47.807Z,13.60
2022-11-03T01:04:36.157Z,14.43
2022-11-03T01:07:06.036Z,14.38
2022-11-03T01:09:39.496Z,14.40
2022-11-03T01:12:06.665Z,14.68
2022-11-03T01:14:44.072Z,14.70
2022-11-03T01:17:14.969Z,14.45
2022-11-03T01:19:42.529Z,14.65
2022-11-03T01:22:11.220Z,14.38
2022-11-03T01:24:41.488Z,14.30
2022-11-03T01:27:15.327Z,14.18
2022-11-03T01:29:42.330Z,13.65
2022-11-03T01:32:09.606Z,14.10
2022-11-03T01:34:37.031Z,13.65
2022-11-03T01:37:04.234Z,13.88
2022-11-03T01:39:31.007Z,13.90
2022-11-03T01:41:58.189Z,13.70
2022-11-03T01:44:33.868Z,13.45
2022-11-03T01:47:12.484Z,13.80
2022-11-03T01:49:41.935Z,13.60
2022-11-03T01:52:16.305Z,13.20
2022-11-03T01:54:46.108Z,13.02
2022-11-03T01:57:17.519Z,13.15
2022-11-03T01:59:46.870Z,13.63
2022-11-03T02:02:20.697Z,13.38
2022-11-03T02:04:47.588Z,13.63
2022-11-03T02:07:26.908Z,13.02
2022-11-03T02:09:53.795Z,13.52
2022-11-03T02:12:22.003Z,13.10
2022-11-03T02:14:54.959Z,13.27
2022-11-03T02:17:24.245Z,13.18
2022-11-03T02:19:57.953Z,13.10
2022-11-03T02:22:43.290Z,13.30
2022-11-03T02:25:34.461Z,13.20
2022-11-03T02:30:38.700Z,13.80
2022-11-03T02:33:32.202Z,13.40
2022-11-03T02:36:03.700Z,13.43
2022-11-03T02:38:35.237Z,13.65
2022-11-03T02:41:06.984Z,14.00
2022-11-03T02:43:34.352Z,13.90
2022-11-03T02:46:05.161Z,13.65
2022-11-03T02:48:32.593Z,13.23
2022-11-03T02:50:59.334Z,13.65
2022-11-03T02:53:30.176Z,13.55
2022-11-03T02:56:08.897Z,14.32
2022-11-03T02:58:45.478Z,14.02
2022-11-03T03:01:18.594Z,14.02
2022-11-03T03:03:52.895Z,13.95
2022-11-03T03:06:38.260Z,13.95
2022-11-03T03:09:10.523Z,13.57
2022-11-03T03:11:42.504Z,13.57
2022-11-03T03:14:36.102Z,13.38
2022-11-03T03:17:14.770Z,13.23
2022-11-03T03:19:57.405Z,13.13
2022-11-03T03:22:39.274Z,12.95
2022-11-03T03:25:26.985Z,13.85
2022-11-03T03:28:00.953Z,13.15
2022-11-03T03:30:31.069Z,13.10
2022-11-03T03:33:00.071Z,12.83
2022-11-03T03:35:30.980Z,13.18
2022-11-03T03:38:04.294Z,12.27
2022-11-03T03:40:36.549Z,12.75
2022-11-03T03:43:06.076Z,13.30
2022-11-03T03:45:35.476Z,12.70
2022-11-03T03:48:04.004Z,13.00
2022-11-03T03:50:35.999Z,13.05
2022-11-03T03:53:05.382Z,14.13
2022-11-03T03:55:38.730Z,14.07
2022-11-03T03:58:06.309Z,13.35
2022-11-03T04:00:33.695Z,12.82
2022-11-03T04:03:00.482Z,13.77
2022-11-03T04:05:28.068Z,12.60
2022-11-03T04:07:54.846Z,13.82
2022-11-03T04:10:23.075Z,14.18
2022-11-03T04:13:08.544Z,14.38
2022-11-03T04:16:02.175Z,13.57
2022-11-03T04:18:47.244Z,14.18
2022-11-03T04:21:33.410Z,14.70
2022-11-03T04:24:03.210Z,14.02
2022-11-03T04:26:30.152Z,14.07
2022-11-03T04:28:57.663Z,15.13
2022-11-03T04:31:24.592Z,15.02
2022-11-03T04:33:51.461Z,14.30
2022-11-03T04:36:23.863Z,13.80
2022-11-03T04:38:52.168Z,14.23
2022-11-03T04:41:24.150Z,13.90
2022-11-03T04:43:52.790Z,14.70
2022-11-03T04:46:28.406Z,14.13
2022-11-03T04:48:58.989Z,13.65
2022-11-03T04:51:30.811Z,14.80
2022-11-03T04:54:15.948Z,14.52
2022-11-03T04:56:42.750Z,14.60
2022-11-03T04:59:14.104Z,14.88
2022-11-03T05:01:41.317Z,14.32
2022-11-03T05:04:17.568Z,14.70
2022-11-03T05:06:53.416Z,14.60
2022-11-03T05:09:31.442Z,14.10
2022-11-03T05:11:59.331Z,13.88
2022-11-03T05:14:30.337Z,14.50
2022-11-03T05:19:39.189Z,15.43
2022-11-03T05:22:15.967Z,15.90
2022-11-03T05:24:42.824Z,15.00
2022-11-03T05:27:16.681Z,14.82
2022-11-03T05:29:43.693Z,14.75
2022-11-03T05:32:21.733Z,14.52
2022-11-03T05:34:54.212Z,15.70
2022-11-03T05:37:26.870Z,15.02
2022-11-03T05:39:57.742Z,14.85
2022-11-03T05:42:45.385Z,15.05
2022-11-03T05:45:24.429Z,14.88
2022-11-03T05:47:55.496Z,14.38
2022-11-03T05:53:16.111Z,13.68
2022-11-03T05:55:43.500Z,14.05
2022-11-03T05:58:37.705Z,14.55
2022-11-03T06:01:19.281Z,14.63
2022-11-03T06:03:47.302Z,14.50
2022-11-03T06:06:24.220Z,15.18
2022-11-03T06:08:53.717Z,15.07
2022-11-03T06:11:40.732Z,15.32
2022-11-03T06:14:24.421Z,15.02
2022-11-03T06:17:18.511Z,16.13
2022-11-03T06:19:49.834Z,15.63
2022-11-03T06:22:24.644Z,15.68
2022-11-03T06:24:56.125Z,15.77
2022-11-03T06:27:24.392Z,15.95
2022-11-03T06:29:56.276Z,16.40
2022-11-03T06:32:23.590Z,16.38
2022-11-03T06:34:54.280Z,16.30
2022-11-03T06:37:24.779Z,16.10
2022-11-03T06:39:58.546Z,15.45
2022-11-03T06:42:31.748Z,15.60
2022-11-03T06:44:59.151Z,16.20
2022-11-03T06:47:28.697Z,16.55
2022-11-03T06:50:00.247Z,15.50
2022-11-03T06:52:31.395Z,15.95
2022-11-03T06:55:10.716Z,16.15
2022-11-03T06:57:42.413Z,16.23
2022-11-03T07:00:33.512Z,16.77
2022-11-03T07:03:19.366Z,16.60
2022-11-03T07:05:46.226Z,16.77
2022-11-03T07:08:26.607Z,16.30
2022-11-03T07:11:27.000Z,17.38
2022-11-03T07:13:58.069Z,16.47
2022-11-03T07:18:51.446Z,16.05
2022-11-03T07:21:33.151Z,16.13
2022-11-03T07:24:01.947Z,15.63
2022-11-03T07:26:29.154Z,15.90
2022-11-03T07:28:55.952Z,16.60
2022-11-03T07:31:25.095Z,16.52
2022-11-03T07:33:59.412Z,16.42
2022-11-03T07:36:31.758Z,16.50
2022-11-03T07:39:01.924Z,16.40
2022-11-03T07:41:34.464Z,15.73
2022-11-03T07:44:02.467Z,15.45
2022-11-03T07:46:29.496Z,15.60
2022-11-03T07:48:59.473Z,15.60
2022-11-03T07:51:32.702Z,16.33
2022-11-03T07:54:08.488Z,15.98
2022-11-03T07:56:50.425Z,16.35
2022-11-03T07:59:22.003Z,15.80
2022-11-03T08:01:54.465Z,16.00
2022-11-03T08:04:32.048Z,15.52
2022-11-03T08:06:58.856Z,15.93
2022-11-03T08:09:25.891Z,16.35
2022-11-03T08:11:52.929Z,15.50
2022-11-03T08:14:19.734Z,15.85
2022-11-03T08:16:46.600Z,15.80
2022-11-03T08:19:13.370Z,15.90
2022-11-03T08:21:40.116Z,15.07
2022-11-03T08:24:07.174Z,14.57
2022-11-03T08:26:33.999Z,14.68
2022-11-03T08:29:00.746Z,15.15
2022-11-03T08:31:27.544Z,14.75
2022-11-03T08:33:54.305Z,14.82
2022-11-03T08:36:21.182Z,15.10
2022-11-03T08:38:47.978Z,14.98
2022-11-03T08:41:14.774Z,15.38
2022-11-03T08:43:41.544Z,14.18
2022-11-03T08:46:18.014Z,14.57
2022-11-03T08:48:45.993Z,14.57
2022-11-03T08:51:14.294Z,14.45
2022-11-03T08:53:42.832Z,14.88
2022-11-03T08:56:12.751Z,14.48
2022-11-03T08:58:43.117Z,14.32
2022-11-03T09:01:09.881Z,14.43
2022-11-03T09:03:36.698Z,14.10
2022-11-03T09:06:03.541Z,14.80
2022-11-03T09:11:17.262Z,14.60
2022-11-03T09:13:44.001Z,15.18
2022-11-03T09:16:10.803Z,14.80
2022-11-03T09:18:37.691Z,14.48
2022-11-03T09:21:04.588Z,15.73
2022-11-03T09:23:31.360Z,15.07
2022-11-03T09:25:58.161Z,15.20
2022-11-03T09:28:24.961Z,15.75
2022-11-03T09:30:51.760Z,15.48
2022-11-03T09:33:18.521Z,15.43
2022-11-03T09:35:45.290Z,15.07
2022-11-03T09:38:12.070Z,14.88
2022-11-03T09:40:39.013Z,15.88
2022-11-03T09:43:06.305Z,15.48
2022-11-03T09:45:33.327Z,15.60
2022-11-03T09:48:01.737Z,13.70
2022-11-03T09:50:28.733Z,14.48
2022-11-03T09:52:57.529Z,13.45
2022-11-03T09:55:26.374Z,13.63
2022-11-03T09:57:56.528Z,13.55
2022-11-03T10:00:24.451Z,13.50
2022-11-03T10:02:51.435Z,13.73
2022-11-03T10:05:24.237Z,13.57
2022-11-03T10:07:56.618Z,13.15
2022-11-03T10:10:23.762Z,14.00
2022-11-03T10:12:53.130Z,13.50
2022-11-03T10:15:22.808Z,14.00
2022-11-03T10:17:52.633Z,13.50
2022-11-03T10:20:21.732Z,14.45
2022-11-03T10:22:53.227Z,14.30
2022-11-03T10:25:30.315Z,13.95
2022-11-03T10:28:22.644Z,13.25
2022-11-03T10:31:11.143Z,13.73
2022-11-03T10:33:42.185Z,13.15
2022-11-03T10:36:18.154Z,13.70
2022-11-03T10:38:45.662Z,12.88
2022-11-03T10:41:15.117Z,14.00
2022-11-03T10:43:44.098Z,13.20
2022-11-03T10:49:15.047Z,12.90
2022-11-03T10:51:43.788Z,13.30
2022-11-03T10:54:14.966Z,13.73
2022-11-03T10:56:42.707Z,13.52
2022-11-03T10:59:16.515Z,14.20
2022-11-03T11:01:43.536Z,13.25
2022-11-03T11:04:16.187Z,13.90
2022-11-03T11:06:43.220Z,14.00
2022-11-03T11:09:13.257Z,14.32
2022-11-03T11:11:40.107Z,13.85
2022-11-03T11:14:25.717Z,13.93
2022-11-03T11:16:56.292Z,13.88
2022-11-03T11:19:24.869Z,13.88
2022-11-03T11:21:54.404Z,14.15
2022-11-03T11:24:43.028Z,14.27
2022-11-03T11:27:32.421Z,13.70
2022-11-03T11:30:00.539Z,13.60
2022-11-03T11:32:39.605Z,13.23
2022-11-03T11:35:30.703Z,13.35
2022-11-03T11:40:50.996Z,13.25
2022-11-03T11:43:20.686Z,13.30
2022-11-03T11:46:25.242Z,13.10
2022-11-03T11:48:58.125Z,13.80
2022-11-03T11:51:25.222Z,12.93
2022-11-03T11:54:16.293Z,12.60
2022-11-03T11:56:44.047Z,12.35
2022-11-03T11:59:25.189Z,12.50
2022-11-03T12:01:56.307Z,11.55
2022-11-03T12:04:28.015Z,12.18
2022-11-03T12:06:56.027Z,12.80
2022-11-03T12:09:27.689Z,12.65
2022-11-03T12:11:56.859Z,11.80
2022-11-03T12:14:37.040Z,12.68
2022-11-03T12:17:21.856Z,12.80
2022-11-03T12:19:50.344Z,11.63
2022-11-03T12:22:23.143Z,11.48
2022-11-03T12:24:57.666Z,11.40
2022-11-03T12:27:24.336Z,11.73
2022-11-03T12:30:02.355Z,12.02
2022-11-03T12:32:33.440Z,12.00
2022-11-03T12:35:05.792Z,12.10
2022-11-03T12:37:32.552Z,11.90
2022-11-03T12:39:59.528Z,11.65
2022-11-03T12:42:26.393Z,11.27
2022-11-03T12:44:56.838Z,11.77
2022-11-03T12:47:23.752Z,12.38
2022-11-03T12:49:50.528Z,13.07
2022-11-03T12:52:17.399Z,12.80
2022-11-03T12:54:44.618Z,12.60
2022-11-03T12:57:11.391Z,12.68
2022-11-03T12:59:38.608Z,12.15
2022-11-03T13:02:05.965Z,13.00
2022-11-03T13:04:32.884Z,12.60
2022-11-03T13:07:01.950Z,12.20
2022-11-03T13:09:29.271Z,12.68
2022-11-03T13:12:14.655Z,12.13
2022-11-03T13:14:45.886Z,12.38
2022-11-03T13:17:14.990Z,12.90
2022-11-03T13:19:41.871Z,11.52
2022-11-03T13:22:08.623Z,12.00
2022-11-03T13:24:35.417Z,12.10
2022-11-03T13:27:02.211Z,11.75
2022-11-03T13:29:34.027Z,12.50
2022-11-03T13:32:03.617Z,12.35
2022-11-03T13:34:31.129Z,11.85
2022-11-03T13:36:58.777Z,12.80
2022-11-03T13:39:25.755Z,12.77
2022-11-03T13:41:52.761Z,11.85
2022-11-03T13:44:19.681Z,11.70
2022-11-03T13:46:46.432Z,11.77
2022-11-03T13:52:00.000Z,12.80
2022-11-03T14:00:03.662Z,12.75
2022-11-03T14:05:26.876Z,12.85
2022-11-03T14:07:53.632Z,12.18
2022-11-03T14:10:20.432Z,12.40
2022-11-03T14:12:47.169Z,12.23
2022-11-03T14:15:14.401Z,13.00
2022-11-03T14:17:41.487Z,12.98
2022-11-03T14:20:10.929Z,13.48
2022-11-03T14:22:39.453Z,13.60
2022-11-03T14:25:07.833Z,13.05
2022-11-03T14:27:34.641Z,12.85
2022-11-03T14:30:01.561Z,13.00
2022-11-03T14:32:28.303Z,13.32
2022-11-03T14:34:55.143Z,13.30
2022-11-03T14:37:25.315Z,13.57
2022-11-03T14:39:52.246Z,13.30
2022-11-03T14:42:19.067Z,13.60
2022-11-03T14:44:47.024Z,14.20
2022-11-03T14:47:17.708Z,14.45
2022-11-03T14:49:45.868Z,14.40
2022-11-03T14:52:13.551Z,14.32
2022-11-03T14:54:40.503Z,14.60
2022-11-03T14:57:07.851Z,14.10
2022-11-03T14:59:34.873Z,15.20
2022-11-03T15:02:03.567Z,14.55
2022-11-03T15:04:30.575Z,14.55
2022-11-03T15:06:57.539Z,14.23
2022-11-03T15:09:24.306Z,13.77
2022-11-03T15:11:51.753Z,14.50
2022-11-03T15:14:21.468Z,14.18
2022-11-03T15:16:49.499Z,14.13
2022-11-03T15:19:16.337Z,13.68
2022-11-03T15:21:43.182Z,14.00
2022-11-03T15:26:56.878Z,14.43
2022-11-03T15:29:24.349Z,14.68
2022-11-03T15:31:51.946Z,15.05
2022-11-03T15:34:18.883Z,14.90
2022-11-03T15:36:45.708Z,14.82
2022-11-03T15:39:13.541Z,15.07
2022-11-03T15:41:40.713Z,15.25
2022-11-03T15:44:07.680Z,14.90
2022-11-03T15:46:35.910Z,14.95
2022-11-03T15:49:03.735Z,13.98
2022-11-03T15:51:30.945Z,14.50
2022-11-03T15:53:59.175Z,14.57
2022-11-03T15:56:27.567Z,14.48
2022-11-03T15:58:54.628Z,15.65
2022-11-03T16:01:21.614Z,15.13
2022-11-03T16:03:48.744Z,14.90
2022-11-03T16:06:15.788Z,14.70
2022-11-03T16:08:43.053Z,14.93
2022-11-03T16:11:09.801Z,14.48
2022-11-03T16:13:36.552Z,15.13
2022-11-03T16:16:03.498Z,14.88
2022-11-03T16:18:30.465Z,14.65
2022-11-03T16:20:57.171Z,14.70
2022-11-03T16:23:24.914Z,15.25
2022-11-03T16:25:51.795Z,14.65
2022-11-03T16:28:18.813Z,14.50
2022-11-03T16:30:48.525Z,14.38
2022-11-03T16:33:20.052Z,14.73
2022-11-03T16:35:46.760Z,14.77
2022-11-03T16:38:15.329Z,15.38
2022-11-03T16:40:43.127Z,14.48
2022-11-03T16:43:09.945Z,15.15
2022-11-03T16:45:38.161Z,15.20
2022-11-03T16:48:06.514Z,15.40
2022-11-03T16:50:33.959Z,15.55
2022-11-03T16:53:01.029Z,16.17
2022-11-03T16:55:27.760Z,16.05
2022-11-03T16:57:54.674Z,16.60
2022-11-03T17:00:21.974Z,16.88
2022-11-03T17:02:48.760Z,16.17
2022-11-03T17:05:17.629Z,16.20
2022-11-03T17:07:51.808Z,15.82
2022-11-03T17:10:20.238Z,15.15
2022-11-03T17:12:46.990Z,15.75
2022-11-03T17:15:14.345Z,15.80
2022-11-03T17:17:41.611Z,15.60
2022-11-03T17:20:10.670Z,16.08
2022-11-03T17:22:37.988Z,15.50
2022-11-03T17:25:06.269Z,16.17
2022-11-03T17:27:51.792Z,16.00
2022-11-03T17:30:24.199Z,15.75
2022-11-03T17:32:53.317Z,15.38
2022-11-03T17:35:24.473Z,15.35
2022-11-03T17:37:52.835Z,15.88
2022-11-03T17:40:22.877Z,16.08
2022-11-03T17:42:50.406Z,15.30
2022-11-03T17:45:19.841Z,16.00
2022-11-03T17:47:47.163Z,15.75
2022-11-03T17:50:16.168Z,16.38
2022-11-03T17:52:47.045Z,16.02
2022-11-03T17:55:20.944Z,15.35
2022-11-03T17:57:48.399Z,15.50
2022-11-03T18:00:18.164Z,15.60
2022-11-03T18:02:45.212Z,15.63
2022-11-03T18:05:15.332Z,16.30
2022-11-03T18:07:45.454Z,16.15
2022-11-03T18:10:12.212Z,16.60
2022-11-03T18:13:03.765Z,17.17
2022-11-03T18:15:32.202Z,16.63
2022-11-03T18:17:59.163Z,16.52
2022-11-03T18:20:29.292Z,17.08
2022-11-03T18:23:10.976Z,16.60
2022-11-03T18:25:37.708Z,16.05
2022-11-03T18:28:04.759Z,16.52
2022-11-03T18:30:31.843Z,16.90
2022-11-03T18:32:58.796Z,17.02
2022-11-03T18:35:28.777Z,16.65
2022-11-03T18:37:56.563Z,15.02
2022-11-03T18:40:23.425Z,16.23
2022-11-03T18:42:50.163Z,16.02
2022-11-03T18:45:19.734Z,15.40
2022-11-03T18:47:46.484Z,16.35
2022-11-03T18:50:16.181Z,16.10
2022-11-03T18:52:49.432Z,15.52
2022-11-03T18:55:17.224Z,15.35
2022-11-03T18:57:44.700Z,15.15
2022-11-03T19:00:23.019Z,15.73
2022-11-03T19:02:50.648Z,16.70
2022-11-03T19:05:18.769Z,16.80
2022-11-03T19:07:49.598Z,16.67
2022-11-03T19:10:22.362Z,16.58
2022-11-03T19:12:49.219Z,17.13
2022-11-03T19:15:20.325Z,16.80
2022-11-03T19:17:49.361Z,16.92
2022-11-03T19:20:18.285Z,17.52
2022-11-03T19:22:45.912Z,16.58
2022-11-03T19:25:14.659Z,16.77
2022-11-03T19:27:45.878Z,16.58
2022-11-03T19:30:16.220Z,16.42
2022-11-03T19:32:49.058Z,17.02
2022-11-03T19:35:20.969Z,16.10
2022-11-03T19:37:51.087Z,16.77
2022-11-03T19:40:19.921Z,16.43
2022-11-03T19:42:48.803Z,17.25
2022-11-03T19:45:20.756Z,16.88
2022-11-03T19:50:48.550Z,16.50
2022-11-03T19:53:21.091Z,16.38
2022-11-03T19:55:48.717Z,16.55
2022-11-03T19:58:22.239Z,15.65
2022-11-03T20:00:49.893Z,17.40
2022-11-03T20:03:16.823Z,16.55
2022-11-03T20:05:49.241Z,16.83
2022-11-03T20:08:19.237Z,17.40
2022-11-03T20:10:47.928Z,16.10
2022-11-03T20:13:24.009Z,17.70
2022-11-03T20:15:53.560Z,17.77
2022-11-03T20:18:23.219Z,17.98
2022-11-03T20:20:50.344Z,17.08
2022-11-03T20:23:25.721Z,18.15
2022-11-03T20:25:53.640Z,16.90
2022-11-03T20:28:27.591Z,18.20
2022-11-03T20:30:55.020Z,18.80
2022-11-03T20:33:23.999Z,19.50
2022-11-03T20:35:53.496Z,19.17
2022-11-03T20:38:20.995Z,19.63
2022-11-03T20:40:49.167Z,19.98
2022-11-03T20:43:25.855Z,20.13
2022-11-03T20:45:54.527Z,19.58
2022-11-03T20:48:21.755Z,19.38
2022-11-03T20:50:48.551Z,19.23
2022-11-03T20:53:18.739Z,19.60
2022-11-03T20:55:46.219Z,20.50
2022-11-03T20:58:16.413Z,19.65
2022-11-03T21:00:45.314Z,18.03
2022-11-03T21:03:45.035Z,19.88
2022-11-03T21:06:10.374Z,19.80
2022-11-03T21:08:37.110Z,20.10
2022-11-03T21:11:27.560Z,20.23
2022-11-03T21:14:01.343Z,20.15
2022-11-03T21:16:48.146Z,20.50
2022-11-03T21:19:34.899Z,20.98
2022-11-03T21:22:02.184Z,20.52
2022-11-03T21:24:28.957Z,19.80
2022-11-03T21:26:55.690Z,20.92
2022-11-03T21:29:38.937Z,21.42
2022-11-03T21:32:15.100Z,22.10
2022-11-03T21:34:42.883Z,23.30
2022-11-03T21:37:14.432Z,24.27
2022-11-03T21:39:42.554Z,23.77
2022-11-03T21:42:33.361Z,24.48
2022-11-03T21:45:00.513Z,24.33
2022-11-03T21:47:28.549Z,23.15
2022-11-03T21:49:55.343Z,23.90
2022-11-03T21:52:32.004Z,23.25
2022-11-03T21:55:04.299Z,23.17
2022-11-03T21:57:31.942Z,22.85
2022-11-03T22:00:01.147Z,21.15
2022-11-03T22:02:30.157Z,20.85
2022-11-03T22:04:57.509Z,20.20
2022-11-03T22:07:24.460Z,20.05
2022-11-03T22:09:51.278Z,20.15
2022-11-03T22:12:18.024Z,19.85
2022-11-03T22:15:03.433Z,19.40
2022-11-03T22:17:30.234Z,19.25
2022-11-03T22:20:15.378Z,18.73
2022-11-03T22:23:01.150Z,17.75
2022-11-03T22:25:46.693Z,17.67
2022-11-03T22:28:15.087Z,16.95
2022-11-03T22:31:00.674Z,17.50
2022-11-03T22:33:27.496Z,17.23
2022-11-03T22:36:21.600Z,16.88
2022-11-03T22:39:07.373Z,16.88
2022-11-03T22:41:52.928Z,16.83
2022-11-03T22:44:38.762Z,17.05
2022-11-03T22:47:08.210Z,16.95
2022-11-03T22:49:35.611Z,16.45
2022-11-03T22:52:03.303Z,17.05
2022-11-03T22:54:30.196Z,16.65
2022-11-03T22:56:56.985Z,16.52
2022-11-03T22:59:23.807Z,16.00
2022-11-03T23:01:50.793Z,16.65
2022-11-03T23:04:17.705Z,16.67
2022-11-03T23:06:44.457Z,16.15
2022-11-03T23:09:12.118Z,15.82
2022-11-03T23:11:38.963Z,15.10
2022-11-03T23:14:08.641Z,14.75
2022-11-03T23:16:41.255Z,14.98
2022-11-03T23:19:29.286Z,15.70
2022-11-03T23:21:56.458Z,15.13
2022-11-03T23:24:45.292Z,15.40
2022-11-03T23:27:13.208Z,15.40
2022-11-03T23:29:40.088Z,15.77
2022-11-03T23:32:07.144Z,15.43
2022-11-03T23:34:35.260Z,15.60
2022-11-03T23:37:03.095Z,15.30
2022-11-03T23:39:29.827Z,15.25
2022-11-03T23:41:56.781Z,15.63
2022-11-03T23:44:23.523Z,15.93
2022-11-03T23:47:09.159Z,15.20
2022-11-03T23:49:35.911Z,15.98
2022-11-03T23:52:02.668Z,15.48
2022-11-03T23:54:29.472Z,15.15
2022-11-03T23:57:15.099Z,15.20
2022-11-03T23:59:42.042Z,15.52
